Date StartTime U_cm/s V_cm/s W_cm/s Ustd_cm/s Vstd_cm/s Wstd_cm/s Uvar_(cm/s)^2 Vvar_(cm/s)^2 Wvar_(cm/s)^2 KE_(m/s)^2 TurbulentKE_(m/s)^2 HorizWindSpeed_cm/s FrictionSpeec_cm/s DragCoef SpeedOfSound_m/s SonicTemperature_C Pressure_mb 
06/01/2013  00:00:00     -169.991       -2.159      -16.355       37.797       31.148       20.371     1428.621      970.213      414.996        1.599        0.141      170.004       16.536        0.009      341.463       16.191      864.313
06/01/2013  00:01:00     -206.305       -5.510      -25.290       31.984       31.170       17.660     1022.965      971.597      311.873        2.277        0.115      206.378       11.938        0.003      341.457       16.180      864.317
06/01/2013  00:02:00     -186.506        0.004      -12.096       57.660       37.906       23.873     3324.623     1436.855      569.905        2.013        0.267      186.506       26.007        0.019      341.426       16.126      864.317
06/01/2013  00:03:00     -209.347       -0.626      -17.883       39.482       44.247       24.468     1558.857     1957.798      598.661        2.413        0.206      209.348       19.100        0.008      341.414       16.107      864.322
06/01/2013  00:04:00     -194.699       -7.238      -14.843       41.791       32.460       21.858     1746.509     1053.654      477.782        2.073        0.164      194.833       22.827        0.014      341.417       16.114      864.327
06/01/2013  00:05:00     -158.329       -1.991       -9.332       46.423       46.335       29.909     2155.085     2146.924      894.566        1.518        0.260      158.341       25.719        0.026      341.365       16.027      864.327
06/01/2013  00:06:00     -162.657       -5.376       -7.695       46.713       28.968       27.133     2182.064      839.141      736.175        1.515        0.188      162.746       26.821        0.027      341.380       16.052      864.338
06/01/2013  00:07:00     -151.312       -6.252       -9.083       30.293       28.227       19.499      917.672      796.736      380.200        1.256        0.105      151.441        8.325        0.003      341.367       16.030      864.325
06/01/2013  00:08:00     -133.264      -13.581       -5.753       39.860       34.481       19.045     1588.850     1188.915      362.707        1.056        0.157      133.954       13.949        0.011      341.352       16.005      864.319
06/01/2013  00:09:00      -48.376      -16.253        1.377       42.845       30.188       16.781     1835.685      911.292      281.617        0.282        0.151       51.033       13.515        0.070      341.315       15.942      864.306
06/01/2013  00:10:00     -128.281       -9.067       -8.616       33.380       24.964       22.495     1114.196      623.181      506.009        0.943        0.112      128.601       14.576        0.013      341.422       16.123      864.299
06/01/2013  00:11:00     -127.393      -17.066       -8.850       34.951       30.170       22.010     1221.554      910.211      484.439        0.961        0.131      128.531       20.100        0.024      341.366       16.028      864.289
06/01/2013  00:12:00     -116.065      -11.609       -6.519       42.468       31.495       22.321     1803.561      991.911      498.244        0.847        0.165      116.644       21.831        0.035      341.341       15.986      864.289
06/01/2013  00:13:00     -128.569      -10.287       -6.064       34.975       28.442       19.876     1223.257      808.955      395.071        0.955        0.121      128.980       16.747        0.017      341.310       15.934      864.293
06/01/2013  00:14:00      -61.543      -15.446        1.073       41.966       25.329       16.887     1761.172      641.539      285.159        0.336        0.134       63.452       19.320        0.093      341.354       16.008      864.294
06/01/2013  00:15:00      -81.437      -22.978        2.891       39.970       33.104       22.639     1597.564     1095.901      512.510        0.519        0.160       84.617       23.370        0.076      341.288       15.895      864.298
06/01/2013  00:16:00      -50.606      -32.285        8.153       36.058       27.229       14.004     1300.148      741.393      196.101        0.295        0.112       60.028       15.942        0.071      341.355       16.010      864.298
06/01/2013  00:17:00      -72.446      -35.940       -0.997       25.437       17.393       11.706      647.060      302.511      137.021        0.381        0.054       80.871        5.293        0.004      341.376       16.045      864.304
06/01/2013  00:18:00      -41.980      -31.846        2.068       36.602       16.919       13.709     1339.675      286.262      187.945        0.230        0.091       52.693       14.416        0.075      341.361       16.020      864.309
06/01/2013  00:19:00        6.119      -23.782       11.323       14.067       13.869       11.767      197.873      192.344      138.457        0.063        0.026       24.557        7.549        0.094      341.377       16.049      864.324
06/01/2013  00:20:00      -37.623      -26.762       -3.062       12.557       12.112        8.417      157.685      146.697       70.853        0.126        0.019       46.170        5.703        0.015      341.363       16.023      864.331
06/01/2013  00:21:00      -87.835      -48.695       -8.044       31.138       15.928       11.204      969.595      253.712      125.518        0.575        0.067      100.430       12.780        0.016      341.352       16.006      864.341
06/01/2013  00:22:00     -129.562      -62.295      -14.337       29.717       21.080       15.206      883.071      444.387      231.219        1.122        0.078      143.760       14.239        0.010      341.288       15.898      864.329
06/01/2013  00:23:00     -124.596      -89.982       -8.293       30.856       25.644       16.950      952.070      657.593      287.286        1.279        0.095      153.691       12.012        0.006      341.208       15.763      864.326
06/01/2013  00:24:00     -116.082      -89.104        6.120       41.448       34.813       27.282     1717.909     1211.937      744.312        1.256        0.184      146.337       22.826        0.024      341.089       15.560      864.339
06/01/2013  00:25:00      -74.356      -91.207        3.569       49.015       35.431       29.517     2402.439     1255.333      871.273        0.919        0.226      117.675       26.639        0.051      341.065       15.520      864.350
06/01/2013  00:26:00      -95.672     -124.968      -11.200       48.134       49.519       27.228     2316.908     2452.094      741.384        1.520        0.276      157.385       10.616        0.005      341.079       15.543      864.374
06/01/2013  00:27:00      -99.530      -60.956      -12.637       62.287       57.630       34.841     3879.672     3321.232     1213.922        1.110        0.421      116.712       30.899        0.070      341.088       15.557      864.374
06/01/2013  00:28:00     -157.498      -97.780      -16.386       65.338       52.140       42.511     4268.997     2718.594     1807.219        2.171        0.440      185.382       20.644        0.012      341.068       15.522      864.373
06/01/2013  00:29:00     -164.989      -98.929       -0.645       54.616       68.014       38.611     2982.910     4625.884     1490.826        2.305        0.455      192.376       22.320        0.013      340.923       15.276      864.355
06/01/2013  00:30:00     -158.532     -121.722       -8.241       52.796       55.291       33.746     2787.448     3057.107     1138.800        2.350        0.349      199.872       29.026        0.021      340.990       15.391      864.348
06/01/2013  00:31:00     -144.277     -104.062        2.699       68.054       62.427       34.951     4631.339     3897.145     1221.570        2.070        0.488      177.890       36.633        0.042      340.935       15.296      864.349
06/01/2013  00:32:00     -166.303     -111.000       -2.911       53.371       45.471       29.519     2848.512     2067.635      871.389        2.289        0.289      199.944       28.953        0.021      340.963       15.344      864.345
06/01/2013  00:33:00     -143.001      -56.950        0.263       32.490       29.667       20.462     1055.585      880.134      418.675        1.302        0.118      153.924       21.841        0.020      340.977       15.369      864.356
06/01/2013  00:34:00     -120.743      -64.924        1.492       55.355       36.405       25.704     3064.122     1325.322      660.672        1.192        0.253      137.091       28.233        0.042      340.988       15.389      864.344
06/01/2013  00:35:00     -134.253      -62.622       -6.249       45.804       31.869       23.863     2098.003     1015.608      569.450        1.283        0.184      148.139       18.227        0.015      341.051       15.495      864.334
06/01/2013  00:36:00     -150.245      -52.229        0.935       37.280       27.017       21.898     1389.823      729.943      479.538        1.395        0.130      159.064       20.979        0.017      340.960       15.343      864.324
06/01/2013  00:37:00     -119.328      -50.082        4.864       32.828       28.959       18.549     1077.708      838.651      344.060        0.952        0.113      129.411        9.785        0.006      340.888       15.220      864.327
06/01/2013  00:38:00      -80.500      -36.533        1.217       29.499       26.259       16.990      870.188      689.534      288.650        0.483        0.092       88.402       13.326        0.023      340.923       15.279      864.335
06/01/2013  00:39:00      -50.476      -37.894        1.334       23.548       31.954       14.554      554.528     1021.070      211.811        0.289        0.089       63.117       13.919        0.049      340.970       15.359      864.343
06/01/2013  00:40:00      -91.942      -20.445      -12.253       20.628       16.045       11.747      425.522      257.434      137.990        0.492        0.041       94.188        4.923        0.003      340.980       15.376      864.352
06/01/2013  00:41:00     -151.825      -36.202      -15.210       25.488       26.535       15.660      649.650      704.095      245.249        1.310        0.080      156.082       10.666        0.005      340.949       15.325      864.333
06/01/2013  00:42:00     -151.856      -57.326      -17.886       14.256       11.215        8.649      203.229      125.779       74.807        1.354        0.020      162.316        6.053        0.001      340.878       15.202      864.325
06/01/2013  00:43:00     -114.146      -61.996      -17.963       24.654       24.398       15.962      607.802      595.278      254.778        0.933        0.073      129.895       11.554        0.008      340.892       15.225      864.316
06/01/2013  00:44:00     -131.579      -71.793      -13.246       19.147       25.925       14.138      366.615      672.112      199.886        1.194        0.062      149.891        9.217        0.004      340.824       15.110      864.320
06/01/2013  00:45:00     -139.939      -68.845      -16.100       28.610       45.678       21.333      818.519     2086.494      455.090        1.397        0.168      155.957       15.194        0.009      340.823       15.110      864.309
06/01/2013  00:46:00      -43.213      -50.039        7.753       38.653       35.180       21.346     1494.084     1237.665      455.656        0.381        0.159       66.116       21.980        0.111      340.762       15.008      864.324
06/01/2013  00:47:00      -21.647      -34.781        9.064       34.976       20.394       21.318     1223.340      415.912      454.468        0.193        0.105       40.967       22.645        0.306      340.766       15.014      864.344
06/01/2013  00:48:00      -70.518      -38.453      -14.922       18.819       15.303        8.664      354.146      234.175       75.067        0.367        0.033       80.321        5.154        0.004      340.855       15.163      864.355
06/01/2013  00:49:00     -129.120      -41.369      -10.545       19.819       15.376       15.236      392.800      236.430      232.125        0.968        0.043      135.585        7.254        0.003      340.854       15.161      864.334
06/01/2013  00:50:00     -120.010      -70.772       -4.921       33.859       21.618       20.508     1146.400      467.348      420.560        1.073        0.102      139.324       15.031        0.012      340.819       15.102      864.311
06/01/2013  00:51:00      -82.038      -51.995       -1.490       31.182       27.829       20.339      972.307      774.472      413.656        0.580        0.108       97.127       11.911        0.015      340.718       14.933      864.308
06/01/2013  00:52:00     -108.504      -40.431       -7.754       18.601       15.689       11.898      345.988      246.130      141.556        0.710        0.037      115.792        6.841        0.003      340.719       14.936      864.292
06/01/2013  00:53:00      -88.984      -39.942       -5.283       46.067       16.216       16.279     2122.194      262.959      264.997        0.610        0.133       97.538       17.816        0.033      340.637       14.795      864.280
06/01/2013  00:54:00        2.512      -27.158       20.293       36.469       19.166       21.506     1329.990      367.350      462.507        0.166        0.108       27.274       20.046        0.540      340.654       14.823      864.263
06/01/2013  00:55:00      -77.534      -62.651        3.572       48.551       40.616       29.097     2357.194     1649.693      846.664        0.740        0.243       99.683       32.432        0.106      340.635       14.791      864.253
06/01/2013  00:56:00      -74.951      -59.478        2.088       47.794       33.189       23.746     2284.295     1101.526      563.886        0.655        0.197       95.683       26.681        0.078      340.626       14.777      864.257
06/01/2013  00:57:00        7.922      -23.404       -3.235       14.387       17.296       20.498      206.978      299.163      420.156        0.077        0.046       24.709       12.477        0.255      340.680       14.869      864.275
06/01/2013  00:58:00       -9.188       -9.779       -9.343       14.452        8.843        6.691      208.869       78.202       44.775        0.030        0.017       13.419        5.695        0.180      340.711       14.920      864.287
06/01/2013  00:59:00      -97.504      -37.069       -8.328       29.805       22.266       16.726      888.318      495.772      279.749        0.631        0.083      104.313       12.407        0.014      340.771       15.021      864.265
06/01/2013  01:00:00     -127.686      -39.495       -9.157       16.779       21.367       12.752      281.543      456.556      162.617        0.942        0.045      133.655       11.131        0.007      340.791       15.055      864.260
06/01/2013  01:01:00     -130.919      -60.120       -3.461       17.145       19.391       14.564      293.952      376.012      212.101        1.082        0.044      144.063        9.751        0.005      340.738       14.965      864.257
06/01/2013  01:02:00     -122.110      -55.856       -1.352       20.864       16.735       14.122      435.296      280.050      199.444        0.947        0.046      134.279        9.896        0.005      340.726       14.944      864.247
06/01/2013  01:03:00     -138.471      -41.312       -7.799       22.377       16.368       15.548      500.717      267.909      241.742        1.098        0.051      144.502       13.099        0.008      340.780       15.038      864.242
06/01/2013  01:04:00     -114.568      -45.985       -3.586       20.112       22.036       12.476      404.493      485.598      155.647        0.815        0.052      123.452        7.633        0.004      340.629       14.784      864.225
06/01/2013  01:05:00      -69.767      -40.601       -5.710       41.082       20.762       17.056     1687.743      431.056      290.893        0.448        0.120       80.721        6.945        0.007      340.572       14.686      864.231
06/01/2013  01:06:00      -76.162      -44.692       -1.468       44.880       23.855       19.613     2014.179      569.041      384.679        0.538        0.148       88.307       19.896        0.051      340.598       14.729      864.234
06/01/2013  01:07:00      -22.635      -17.723        4.054       25.430       21.798       19.393      646.687      475.163      376.101        0.117        0.075       28.748       18.559        0.417      340.615       14.760      864.239
06/01/2013  01:08:00      -53.093      -28.000        0.263       29.811       21.221       16.262      888.724      450.312      264.445        0.260        0.080       60.024       15.885        0.070      340.701       14.904      864.248
06/01/2013  01:09:00      -64.321      -47.986        1.314       30.263       26.437       17.306      915.864      698.918      299.486        0.418        0.096       80.249       18.420        0.053      340.712       14.922      864.253
06/01/2013  01:10:00      -69.344      -51.721       -7.365       15.530       15.861       12.527      241.172      251.576      156.914        0.409        0.032       86.509        1.742        0.000      340.767       15.015      864.254
06/01/2013  01:11:00      -99.924      -46.835      -11.565       10.346       14.672        8.418      107.042      215.261       70.856        0.635        0.020      110.356        4.858        0.002      340.766       15.012      864.251
06/01/2013  01:12:00     -108.879      -63.844       -9.364       19.794       17.957       11.616      391.805      322.471      134.938        0.843        0.042      126.217        7.649        0.004      340.690       14.886      864.242
06/01/2013  01:13:00      -75.357      -60.059        7.012       30.632       22.010       20.727      938.342      484.442      429.616        0.559        0.093       96.362       13.367        0.019      340.567       14.677      864.248
06/01/2013  01:14:00      -22.169      -40.108       11.487       36.194       30.503       23.683     1310.007      930.442      560.908        0.252        0.140       45.827       16.859        0.135      340.477       14.525      864.265
06/01/2013  01:15:00      -65.639     -101.020       -1.409       29.856       33.795       21.757      891.397     1142.094      473.367        0.851        0.125      120.472       19.804        0.027      340.602       14.736      864.261
06/01/2013  01:16:00      -61.916      -59.803        0.241       47.543       24.179       19.496     2260.359      584.633      380.098        0.532        0.161       86.081       17.944        0.043      340.619       14.766      864.269
06/01/2013  01:17:00     -100.069     -101.473        3.048       42.260       49.136       26.543     1785.926     2414.314      704.513        1.261        0.245      142.515       25.441        0.032      340.534       14.620      864.271
06/01/2013  01:18:00     -113.214     -105.639       -3.876       43.061       37.895       29.313     1854.273     1436.015      859.225        1.407        0.207      154.845       14.139        0.008      340.533       14.619      864.264
06/01/2013  01:19:00     -118.991      -77.597       -5.667       58.104       43.076       27.679     3376.098     1855.578      766.107        1.310        0.300      142.057       23.448        0.027      340.438       14.458      864.274
06/01/2013  01:20:00     -117.648      -64.811       -3.657       61.958       40.325       32.029     3838.844     1626.118     1025.834        1.227        0.325      134.319       25.694        0.037      340.284       14.197      864.271
06/01/2013  01:21:00     -108.763      -62.348        3.158       65.763       43.408       32.907     4324.712     1884.281     1082.884        1.151        0.365      125.366       28.648        0.052      340.259       14.154      864.273
06/01/2013  01:22:00      -86.750      -45.253        5.621       71.457       52.735       36.082     5106.044     2780.939     1301.927        0.940        0.459       97.844       39.084        0.160      340.166       13.998      864.269
06/01/2013  01:23:00     -143.693      -85.131       -7.081       78.908       63.882       38.594     6226.420     4080.893     1489.531        1.987        0.590      167.018       36.569        0.048      340.109       13.901      864.258
06/01/2013  01:24:00     -167.820      -77.492        2.683       90.736       62.074       40.133     8233.059     3853.174     1610.653        2.393        0.685      184.848       45.057        0.059      339.987       13.696      864.251
06/01/2013  01:25:00     -184.368     -117.054        0.324       64.572       66.740       35.862     4169.518     4454.250     1286.047        2.880        0.495      218.388       32.234        0.022      339.947       13.626      864.253
06/01/2013  01:26:00     -192.545     -149.168      -10.200       42.669       51.236       31.265     1820.681     2625.095      977.510        3.243        0.271      243.567       27.015        0.012      339.949       13.629      864.247
06/01/2013  01:27:00     -154.114     -121.767       -3.114       69.003       55.963       41.384     4761.462     3131.873     1712.639        2.410        0.480      196.414       39.090        0.040      339.920       13.581      864.231
06/01/2013  01:28:00     -124.932     -105.954        1.745       69.710       60.222       38.264     4859.499     3626.671     1464.171        1.839        0.498      163.811       36.441        0.049      339.962       13.654      864.238
06/01/2013  01:29:00     -110.600      -95.562        3.598       54.376       42.907       31.469     2956.718     1840.987      990.323        1.358        0.289      146.166       34.279        0.055      339.974       13.675      864.246
06/01/2013  01:30:00     -114.792      -66.576        2.820       42.471       27.869       25.338     1803.820      776.698      641.999        1.042        0.161      132.701       23.982        0.033      340.033       13.774      864.232
06/01/2013  01:31:00     -138.902      -87.747       -3.595       33.333       29.395       20.671     1111.091      864.067      427.307        1.470        0.120      164.297       17.111        0.011      340.032       13.773      864.231
06/01/2013  01:32:00     -115.187      -58.072        0.365       57.323       30.480       26.344     3285.980      929.044      693.991        1.077        0.245      128.997       27.270        0.045      340.051       13.804      864.222
06/01/2013  01:33:00     -107.442      -56.504       -0.085       37.360       32.002       16.683     1395.791     1024.152      278.320        0.872        0.135      121.394       14.333        0.014      340.111       13.908      864.215
06/01/2013  01:34:00      -63.805      -29.533        2.485       44.982       23.629       15.509     2023.404      558.351      240.531        0.389        0.141       70.308       14.219        0.041      340.119       13.919      864.230
06/01/2013  01:35:00      -64.691       -3.521        3.678       29.814       23.339       15.600      888.853      544.718      243.370        0.294        0.084       64.786       14.926        0.053      339.993       13.707      864.225
06/01/2013  01:36:00      -77.468        5.920       -6.052       24.012       25.587       15.600      576.599      654.682      243.375        0.377        0.074       77.694       10.368        0.018      339.911       13.568      864.228
06/01/2013  01:37:00      -95.020      -10.495       -8.822       16.097       19.579       10.562      259.115      383.328      111.557        0.499        0.038       95.598        4.599        0.002      340.061       13.821      864.217
06/01/2013  01:38:00      -88.168      -30.381      -11.363       14.420       12.887        9.713      207.945      166.082       94.342        0.465        0.023       93.255        7.905        0.007      340.039       13.784      864.213
06/01/2013  01:39:00     -104.522      -39.990      -12.630       24.346       27.545       10.947      592.729      758.723      119.840        0.708        0.074      111.911        5.339        0.002      340.009       13.735      864.208
06/01/2013  01:40:00     -120.198       -9.903       -9.907       19.456       15.314       12.212      378.528      234.528      149.123        0.770        0.038      120.606        9.875        0.007      339.950       13.635      864.205
06/01/2013  01:41:00      -62.909      -56.681       -6.831       31.101       20.549       15.006      967.265      422.258      225.180        0.442        0.081       84.678       11.302        0.018      339.962       13.655      864.213
06/01/2013  01:42:00      -48.678       -8.391        2.768       30.355       20.850       16.697      921.446      434.710      278.789        0.204        0.082       49.396       20.728        0.176      340.003       13.723      864.211
06/01/2013  01:43:00      -60.530      -17.816       -4.916       18.129       14.652       10.377      328.671      214.693      107.673        0.233        0.033       63.098        8.996        0.020      340.061       13.821      864.206
06/01/2013  01:44:00      -67.215      -11.394       -6.216       19.725       20.115       14.447      389.070      404.624      208.722        0.284        0.050       68.174       11.736        0.030      340.077       13.849      864.207
06/01/2013  01:45:00      -88.737      -29.345       -8.072       18.286       20.008       12.643      334.385      400.333      159.849        0.485        0.045       93.463        8.108        0.008      340.118       13.916      864.191
06/01/2013  01:46:00      -96.045      -26.491       -3.995       22.288       27.590       16.576      496.738      761.198      274.778        0.574        0.077       99.632       11.739        0.014      340.025       13.761      864.184
06/01/2013  01:47:00     -105.447      -34.194      -15.896       23.288       23.137       17.802      542.318      535.326      316.900        0.697        0.070      110.853       12.101        0.012      339.982       13.689      864.180
06/01/2013  01:48:00     -100.783      -26.192      -13.148       22.171       19.596       15.891      491.547      383.986      252.508        0.607        0.056      104.131        4.831        0.002      339.956       13.646      864.165
06/01/2013  01:49:00      -75.529      -29.107        0.954       34.116       32.153       19.715     1163.884     1033.829      388.671        0.457        0.129       80.944       14.639        0.033      339.934       13.607      864.175
06/01/2013  01:50:00      -45.057      -39.536        5.582       42.470       25.331       21.019     1803.681      641.671      441.811        0.326        0.144       59.944       19.915        0.110      339.922       13.589      864.173
06/01/2013  01:51:00     -103.433      -29.182      -17.129       56.296       21.649       16.746     3169.201      468.691      280.422        0.788        0.196      107.471       20.083        0.035      339.862       13.485      864.169
06/01/2013  01:52:00      -73.410      -43.486       -8.185       46.726       27.274       21.015     2183.295      743.872      441.616        0.536        0.168       85.323        9.034        0.011      339.899       13.548      864.163
06/01/2013  01:53:00      -99.504      -38.258        0.378       40.152       39.544       18.584     1612.176     1563.717      345.363        0.744        0.176      106.606       18.121        0.029      339.857       13.478      864.158
06/01/2013  01:54:00      -96.938      -48.060      -12.199       42.831       26.235       20.476     1834.485      688.285      419.269        0.740        0.147      108.198       15.532        0.021      339.896       13.543      864.163
06/01/2013  01:55:00      -70.214      -40.494        1.770       51.790       36.602       21.963     2682.188     1339.732      482.391        0.554        0.225       81.054       25.550        0.099      339.960       13.651      864.163
06/01/2013  01:56:00       -4.025      -21.768       13.041       41.524       25.576       18.845     1724.277      654.136      355.148        0.170        0.137       22.137       21.136        0.912      339.915       13.577      864.153
06/01/2013  01:57:00      -24.305      -30.306        7.861       51.018       29.359       25.924     2602.821      861.967      672.057        0.285        0.207       38.848       26.741        0.474      339.908       13.565      864.158
06/01/2013  01:58:00      -20.139      -39.741       11.483       49.088       27.502       18.837     2409.641      756.361      354.832        0.282        0.176       44.552       24.053        0.291      339.958       13.647      864.180
06/01/2013  01:59:00      -81.304      -52.244        3.238       37.854       28.680       19.471     1432.944      822.521      379.120        0.599        0.132       96.643       19.906        0.042      339.923       13.590      864.184
06/01/2013  02:00:00     -101.069      -96.530       -4.931       51.632       38.118       31.528     2665.842     1452.992      994.020        1.233        0.256      139.761       29.326        0.044      339.884       13.523      864.180
06/01/2013  02:01:00     -130.854     -113.172       -9.714       45.746       36.633       30.259     2092.653     1341.999      915.611        1.719        0.218      173.005       23.739        0.019      339.810       13.399      864.191
06/01/2013  02:02:00     -136.243      -68.274       -0.190       48.484       45.296       29.976     2350.657     2051.727      898.537        1.426        0.265      152.393       25.218        0.027      339.837       13.443      864.190
06/01/2013  02:03:00     -126.976      -80.002        0.520       60.867       43.638       31.981     3704.816     1904.250     1022.816        1.458        0.332      150.077       32.398        0.047      339.785       13.355      864.190
06/01/2013  02:04:00     -142.525      -83.636       -4.022       58.072       32.613       26.756     3372.395     1063.619      715.876        1.624        0.258      165.253       23.496        0.020      339.762       13.317      864.181
06/01/2013  02:05:00     -133.778      -55.994        1.471       43.988       30.489       28.018     1934.967      929.603      784.986        1.234        0.182      145.023       19.308        0.018      339.757       13.312      864.173
06/01/2013  02:06:00     -159.616      -54.035       -5.820       17.697       18.683       11.879      313.177      349.044      141.120        1.462        0.040      168.514        5.683        0.001      339.827       13.428      864.167
06/01/2013  02:07:00     -126.904      -53.534       -7.872       27.758       31.375       19.782      770.503      984.383      391.329        1.059        0.107      137.734       12.864        0.009      339.806       13.392      864.164
06/01/2013  02:08:00     -133.984      -33.142       -1.555       38.039       26.419       18.170     1446.929      697.974      330.136        1.076        0.124      138.022       18.662        0.018      339.703       13.219      864.165
06/01/2013  02:09:00     -121.707      -49.962        0.241       42.475       27.834       18.424     1804.162      774.739      339.432        1.011        0.146      131.563       20.495        0.024      339.709       13.229      864.151
06/01/2013  02:10:00     -144.947      -74.278       -6.090       30.258       22.290       20.138      915.519      496.823      405.525        1.419        0.091      162.871       17.750        0.012      339.707       13.226      864.147
06/01/2013  02:11:00      -93.592      -63.367        3.248       47.818       29.062       24.685     2286.581      844.594      609.334        0.826        0.187      113.026       21.023        0.035      339.663       13.151      864.150
06/01/2013  02:12:00      -71.353      -69.397        2.930       57.327       35.853       27.136     3286.427     1285.472      736.387        0.761        0.265       99.535       27.168        0.075      339.694       13.204      864.154
06/01/2013  02:13:00      -46.842      -51.807       13.086       45.002       33.334       24.396     2025.223     1111.159      595.186        0.439        0.187       69.844       22.194        0.101      339.747       13.292      864.169
06/01/2013  02:14:00      -74.502      -71.409       -4.158       48.205       34.931       22.939     2323.764     1220.160      526.177        0.737        0.204      103.198       22.459        0.047      339.711       13.231      864.177
06/01/2013  02:15:00      -66.050      -59.665        6.785       41.714       38.632       22.169     1740.026     1492.418      491.482        0.585        0.186       89.008       15.934        0.032      339.603       13.049      864.173
06/01/2013  02:16:00      -73.296      -58.413        3.976       50.084       41.235       31.380     2508.367     1700.352      984.689        0.700        0.260       93.725       25.906        0.076      339.528       12.924      864.164
06/01/2013  02:17:00      -95.643      -74.087        3.738       34.824       39.874       27.789     1212.705     1589.929      772.206        0.911        0.179      120.982       22.589        0.035      339.479       12.841      864.139
06/01/2013  02:18:00      -80.774      -59.486       -1.208       46.322       33.694       22.870     2145.693     1135.263      523.014        0.693        0.190      100.315       24.605        0.060      339.477       12.837      864.116
06/01/2013  02:19:00     -107.675      -75.902       -5.504       43.374       39.556       23.510     1881.342     1564.701      552.706        1.069        0.200      131.738       20.669        0.025      339.516       12.902      864.095
06/01/2013  02:20:00     -118.203      -75.440       -2.197       30.351       26.503       16.368      921.178      702.433      267.896        1.078        0.095      140.225       13.582        0.009      339.502       12.878      864.080
06/01/2013  02:21:00      -77.948      -45.411        5.114       35.610       31.614       21.151     1268.091      999.449      447.363        0.544        0.136       90.212       19.717        0.048      339.500       12.876      864.070
06/01/2013  02:22:00      -80.314      -46.260       -1.523       34.425       24.275       19.212     1185.053      589.286      369.119        0.537        0.107       92.684       17.029        0.034      339.565       12.986      864.084
06/01/2013  02:23:00      -81.063      -44.953        3.731       30.851       22.142       15.669      951.755      490.287      245.514        0.515        0.084       92.693       12.488        0.018      339.612       13.065      864.085
06/01/2013  02:24:00      -31.427      -50.741        9.108       51.101       33.671       25.498     2611.323     1133.725      650.136        0.402        0.220       59.685       27.721        0.216      339.610       13.062      864.097
06/01/2013  02:25:00      -43.005      -71.144        2.097       35.949       36.564       27.896     1292.305     1336.895      778.213        0.516        0.170       83.132       23.774        0.082      339.629       13.092      864.105
06/01/2013  02:26:00      -93.736      -76.288        2.338       49.631       38.417       25.145     2463.264     1475.892      632.279        0.959        0.229      120.856       26.976        0.050      339.594       13.033      864.095
06/01/2013  02:27:00     -115.870      -91.300      -12.189       44.921       37.615       28.825     2017.932     1414.907      830.907        1.309        0.213      147.519       23.804        0.026      339.534       12.933      864.085
06/01/2013  02:28:00     -129.105      -71.954       -2.435       41.927       41.852       29.221     1757.915     1751.622      853.844        1.311        0.218      147.803       28.513        0.037      339.482       12.845      864.064
06/01/2013  02:29:00     -134.131      -83.767       -2.105       26.027       31.626       20.433      677.416     1000.224      417.509        1.355        0.105      158.139       15.102        0.009      339.400       12.706      864.045
06/01/2013  02:30:00     -126.427      -73.488      -12.199       28.866       31.293       21.084      833.251      979.248      444.526        1.189        0.113      146.234       16.347        0.012      339.440       12.775      864.049
06/01/2013  02:31:00     -152.698      -55.731      -13.058       17.977       19.978       11.567      323.188      399.117      133.800        1.372        0.043      162.550        8.373        0.003      339.476       12.836      864.036
06/01/2013  02:32:00     -154.340      -52.452       -8.363       25.687       22.075       18.257      659.805      487.307      333.328        1.406        0.074      163.010       14.002        0.007      339.426       12.750      864.026
06/01/2013  02:33:00     -140.678      -35.040        1.382       37.959       33.729       23.726     1440.900     1137.652      562.939        1.208        0.157      144.976       23.295        0.026      339.404       12.713      864.033
06/01/2013  02:34:00      -88.674      -61.926        6.690       44.072       37.087       19.508     1942.335     1375.449      380.574        0.772        0.185      108.156       15.765        0.021      339.432       12.761      864.026
06/01/2013  02:35:00     -112.561      -39.912       -4.122       20.216       24.934       18.095      408.680      621.726      327.419        0.782        0.068      119.428        6.865        0.003      339.401       12.710      864.026
06/01/2013  02:36:00      -73.276      -55.049       -1.100       24.934       24.710       19.239      621.681      610.606      370.128        0.500        0.080       91.651       16.468        0.032      339.434       12.765      864.030
06/01/2013  02:37:00      -50.903      -34.611        5.298       32.482       23.267       16.551     1055.067      541.354      273.949        0.284        0.094       61.555       16.356        0.071      339.415       12.732      864.030
06/01/2013  02:38:00      -77.124      -55.210        1.012       46.607       36.945       24.576     2172.179     1364.912      603.989        0.657        0.207       94.849       21.571        0.052      339.361       12.642      864.028
06/01/2013  02:39:00     -116.410      -70.854       -8.217       42.041       31.135       21.680     1767.415      969.392      470.003        1.092        0.160      136.277       23.769        0.030      339.376       12.668      864.024
06/01/2013  02:40:00      -62.818      -40.116        6.901       30.027       26.016       18.172      901.648      676.829      330.227        0.376        0.095       74.534       11.785        0.025      339.353       12.628      864.010
06/01/2013  02:41:00      -30.168      -43.059        3.466       31.031       29.620       21.962      962.892      877.332      482.324        0.255        0.116       52.575       18.350        0.122      339.357       12.634      864.019
06/01/2013  02:42:00     -102.491     -127.647       -4.228       52.078       43.253       29.537     2712.137     1870.857      872.408        1.613        0.273      163.702       30.499        0.035      339.278       12.501      864.019
06/01/2013  02:43:00     -127.671      -90.882       -0.900       56.025       43.475       30.907     3138.820     1890.039      955.266        1.527        0.299      156.714       33.334        0.045      339.324       12.579      864.018
06/01/2013  02:44:00      -96.314     -102.186       -1.753       49.942       44.040       23.563     2494.175     1939.555      555.208        1.235        0.249      140.422       22.760        0.026      339.324       12.579      864.047
06/01/2013  02:45:00     -106.098      -72.452       -2.898       42.922       38.541       24.642     1842.288     1485.428      607.227        1.022        0.197      128.475       16.810        0.017      339.330       12.587      864.063
06/01/2013  02:46:00     -148.463      -90.648       -3.796       56.644       36.436       25.936     3208.578     1327.608      672.659        1.774        0.260      173.949       25.410        0.021      339.247       12.449      864.057
06/01/2013  02:47:00     -151.840     -105.015        0.027       55.130       49.407       27.828     3039.339     2441.074      774.416        2.017        0.313      184.617       27.710        0.023      339.281       12.506      864.059
06/01/2013  02:48:00      -92.527      -65.055        9.963       60.460       52.383       26.087     3655.357     2743.934      680.511        0.999        0.354      113.108       29.290        0.067      339.166       12.313      864.078
06/01/2013  02:49:00     -105.528      -89.697        7.032       55.398       53.554       38.157     3068.946     2867.999     1455.920        1.331        0.370      138.498       32.914        0.056      339.167       12.314      864.076
06/01/2013  02:50:00      -84.272      -70.187        8.431       48.539       32.292       26.572     2356.034     1042.782      706.051        0.810        0.205      109.672       27.274        0.062      339.209       12.387      864.075
06/01/2013  02:51:00      -84.941      -38.011       -2.038       37.306       29.292       18.961     1391.717      858.025      359.510        0.564        0.130       93.058       16.898        0.033      339.275       12.495      864.074
06/01/2013  02:52:00      -73.571      -37.159        2.995       32.115       27.988       17.591     1031.372      783.301      309.440        0.446        0.106       82.422       14.520        0.031      339.282       12.509      864.055
06/01/2013  02:53:00      -75.128      -44.948       -6.945       29.893       22.836       17.124      893.601      521.503      293.228        0.471        0.085       87.548       10.707        0.015      339.338       12.603      864.046
06/01/2013  02:54:00      -88.316      -62.032       -4.176       26.294       23.806       15.303      691.371      566.743      234.188        0.658        0.075      107.924       11.981        0.012      339.329       12.589      864.029
06/01/2013  02:55:00      -73.322      -59.403       -0.427       25.501       15.939       15.551      650.326      254.038      241.823        0.503        0.057       94.366       11.767        0.016      339.341       12.606      864.005
06/01/2013  02:56:00      -88.620      -47.609       -8.128       26.270       18.593       14.078      690.099      345.688      198.187        0.571        0.062      100.599       12.062        0.014      339.207       12.381      863.982
06/01/2013  02:57:00      -71.706      -39.381        1.606       39.602       25.296       17.683     1568.346      639.910      312.684        0.461        0.126       81.808       11.543        0.020      339.218       12.399      863.971
06/01/2013  02:58:00      -43.278      -41.123       18.694       51.888       24.422       25.987     2692.397      596.441      675.344        0.394        0.198       59.700       29.534        0.245      339.222       12.407      863.965
06/01/2013  02:59:00      -39.043      -53.421        8.901       64.144       44.116       26.623     4114.476     1946.189      708.790        0.561        0.338       66.168       31.188        0.222      339.190       12.354      863.973
06/01/2013  03:00:00     -112.026      -73.287        0.006       42.283       41.424       27.247     1787.858     1715.974      742.396        1.108        0.212      133.868       17.815        0.018      339.190       12.352      863.984
06/01/2013  03:01:00      -79.817      -63.861        4.979       46.096       45.093       28.513     2124.824     2033.374      812.979        0.772        0.249      102.220       20.000        0.038      339.232       12.423      863.987
06/01/2013  03:02:00     -113.438      -74.131       -2.228       44.486       58.602       31.225     1978.964     3434.234      975.008        1.238        0.319      135.512       21.777        0.026      339.135       12.260      863.997
06/01/2013  03:03:00     -133.980      -95.427       -2.438       49.087       44.583       28.310     2409.504     1987.670      801.447        1.613        0.260      164.490       22.377        0.019      339.060       12.134      863.994
06/01/2013  03:04:00     -155.639      -88.011       -6.743       58.036       52.543       38.631     3368.133     2760.738     1492.317        1.982        0.381      178.800       29.840        0.028      339.009       12.048      863.989
06/01/2013  03:05:00     -164.790     -122.821       -4.088       52.082       57.143       38.540     2712.560     3265.271     1485.350        2.486        0.373      205.525       37.307        0.033      339.000       12.030      863.982
06/01/2013  03:06:00     -163.233      -81.288       -2.815       63.693       46.529       36.136     4056.818     2164.917     1305.790        2.039        0.376      182.354       31.636        0.030      338.938       11.928      863.971
06/01/2013  03:07:00     -168.634     -111.803       -7.249       55.401       52.726       40.696     3069.289     2780.015     1656.202        2.425        0.375      202.330       32.668        0.026      338.911       11.881      863.952
06/01/2013  03:08:00     -169.297     -122.327       -7.061       54.017       49.232       35.606     2917.889     2423.784     1267.768        2.514        0.330      208.867       27.836        0.018      338.896       11.855      863.948
06/01/2013  03:09:00     -156.381     -107.957       -8.697       38.669       40.280       24.515     1495.303     1622.490      601.002        1.995        0.186      190.026       22.900        0.015      338.907       11.877      863.931
06/01/2013  03:10:00     -118.156      -71.681       -7.395       41.003       28.687       18.644     1681.220      822.918      347.583        1.100        0.143      138.199       21.254        0.024      338.917       11.893      863.924
06/01/2013  03:11:00      -57.486      -57.434        0.305       34.995       30.618       19.414     1224.638      937.484      376.910        0.457        0.127       81.260       19.471        0.057      338.944       11.940      863.933
06/01/2013  03:12:00      -98.156      -82.380       -3.350       29.520       31.954       20.064      871.456     1021.065      402.573        0.936        0.115      128.145       15.890        0.015      338.963       11.971      863.943
06/01/2013  03:13:00      -96.230      -65.038       -0.627       51.393       34.282       26.874     2641.207     1175.253      722.189        0.901        0.227      116.147       26.951        0.054      338.993       12.021      863.945
06/01/2013  03:14:00      -96.205      -83.331       -0.143       37.804       33.548       26.986     1429.129     1125.455      728.267        0.974        0.164      127.278       24.091        0.036      338.984       12.007      863.944
06/01/2013  03:15:00      -95.527      -55.456       -5.797       31.400       20.966       17.020      985.973      439.586      289.692        0.697        0.086      110.457       11.916        0.012      339.021       12.070      863.968
06/01/2013  03:16:00      -92.473      -60.975       -5.445       39.280       22.132       15.838     1542.951      489.824      250.855        0.729        0.114      110.766       12.104        0.012      339.075       12.160      863.981
06/01/2013  03:17:00      -95.672      -28.300       -5.692       26.659       28.981       17.894      710.719      839.897      320.199        0.593        0.094       99.769       14.106        0.020      339.046       12.111      863.999
06/01/2013  03:18:00      -98.041      -23.187       -0.864       29.583       21.841       16.962      875.135      477.025      287.715        0.589        0.082      100.746       16.205        0.026      338.927       11.912      864.011
06/01/2013  03:19:00     -110.573      -20.723       -5.504       23.142       22.136       16.958      535.541      489.982      287.589        0.700        0.066      112.498       13.191        0.014      338.847       11.776      864.004
06/01/2013  03:20:00     -108.550      -29.320        1.456       31.390       25.904       15.093      985.339      670.994      227.811        0.726        0.094      112.440       13.675        0.015      338.900       11.867      864.005
06/01/2013  03:21:00      -91.742      -51.604        0.333       42.989       30.341       20.502     1848.096      920.576      420.341        0.713        0.159      105.259       22.929        0.047      338.941       11.936      864.022
06/01/2013  03:22:00      -79.383      -26.089       -5.842       33.719       28.128       19.422     1136.941      791.209      377.195        0.466        0.115       83.560       15.413        0.034      338.987       12.012      864.026
06/01/2013  03:23:00     -119.658      -39.795       -4.188       20.639       21.818       16.215      425.980      476.018      262.916        0.854        0.058      126.102       13.631        0.012      338.955       11.959      864.032
06/01/2013  03:24:00     -119.956      -53.795       -2.509       29.415       27.859       15.829      865.263      776.108      250.563        0.959        0.095      131.466       11.347        0.007      338.934       11.923      864.050
06/01/2013  03:25:00     -131.338      -63.339       -7.287       22.894       15.758       13.060      524.122      248.317      170.563        1.113        0.047      145.813        3.772        0.001      338.958       11.964      864.063
06/01/2013  03:26:00     -123.942      -54.764       -2.780       20.458       21.777       14.379      418.515      474.231      206.764        0.973        0.055      135.501        7.449        0.003      338.932       11.919      864.068
06/01/2013  03:27:00     -101.828      -25.196       -6.609       39.338       23.880       14.506     1547.493      570.275      210.426        0.669        0.116      104.899       17.447        0.028      338.929       11.914      864.067
06/01/2013  03:28:00     -114.897      -37.436      -16.413       14.371       19.559       11.672      206.525      382.566      136.227        0.780        0.036      120.842        5.986        0.002      338.916       11.892      864.057
06/01/2013  03:29:00     -131.198      -36.115      -11.157       21.877       15.683       11.685      478.614      245.954      136.544        0.975        0.043      136.078        6.681        0.002      338.882       11.836      864.041
06/01/2013  03:30:00      -98.586      -39.205       -5.438       15.439       13.814       10.180      238.365      190.822      103.638        0.591        0.027      106.096        5.892        0.003      338.882       11.838      864.052
06/01/2013  03:31:00      -83.988      -33.723       -5.533       14.220       19.087       10.770      202.203      364.324      115.999        0.445        0.034       90.506        6.952        0.006      338.950       11.948      864.049
06/01/2013  03:32:00     -102.018      -31.101       -9.616       13.782       11.590       10.073      189.935      134.330      101.457        0.595        0.021      106.653        7.161        0.005      338.895       11.856      864.035
06/01/2013  03:33:00      -63.865      -26.887       -4.517       18.747       18.684       13.352      351.440      349.105      178.275        0.285        0.044       69.294        9.075        0.017      339.008       12.047      864.023
06/01/2013  03:34:00      -82.232      -22.499      -18.004        6.738        8.656        6.817       45.395       74.919       46.465        0.388        0.008       85.254        3.903        0.002      338.890       11.850      864.025
06/01/2013  03:35:00      -91.995      -29.136      -17.536       18.078       15.228       12.088      326.810      231.881      146.125        0.516        0.035       96.498        5.835        0.004      338.911       11.883      864.009
06/01/2013  03:36:00     -115.799      -20.120      -14.724       22.998       16.227       12.891      528.888      263.304      166.176        0.749        0.048      117.534       10.072        0.007      338.898       11.863      863.996
06/01/2013  03:37:00     -137.179      -55.779      -18.529       11.051       12.818        9.284      122.129      164.296       86.194        1.132        0.019      148.086        5.615        0.001      338.812       11.718      863.992
06/01/2013  03:38:00     -141.457      -49.472      -10.430       16.732       19.925       13.082      279.974      397.018      171.129        1.171        0.042      149.858        5.661        0.001      338.819       11.730      863.992
06/01/2013  03:39:00     -116.823      -57.658       -9.043       40.658       22.564       17.440     1653.052      509.120      304.151        0.976        0.123      130.277       14.666        0.013      338.803       11.702      863.980
06/01/2013  03:40:00     -125.008      -53.079       -7.769       20.644       26.001       14.819      426.178      676.051      219.602        0.991        0.066      135.811        7.912        0.003      338.857       11.794      863.974
06/01/2013  03:41:00      -82.306      -42.886       -4.786       18.061       14.227       10.205      326.196      202.400      104.148        0.463        0.032       92.809        8.140        0.008      338.832       11.752      863.986
06/01/2013  03:42:00      -22.296      -27.912        7.340       26.091       16.238       12.050      680.734      263.661      145.191        0.121        0.054       35.724       12.631        0.125      338.861       11.800      864.000
06/01/2013  03:43:00        0.004      -20.584        0.325       10.892       11.726        7.115      118.644      137.495       50.618        0.037        0.015       20.584        6.953        0.114      338.937       11.927      864.018
06/01/2013  03:44:00       -0.609      -18.035       -0.415       15.266       12.324        9.147      233.051      151.887       83.666        0.040        0.023       18.045        7.779        0.186      339.012       12.053      864.021
06/01/2013  03:45:00      -28.095      -26.455       -1.869       31.122       19.788       14.318      968.572      391.566      205.009        0.153        0.078       38.590       13.325        0.119      338.910       11.881      864.027
06/01/2013  03:46:00      -66.944      -54.156       -6.178       32.394       19.095       11.955     1049.398      364.632      142.925        0.450        0.078       86.106       11.639        0.018      338.827       11.743      864.018
06/01/2013  03:47:00      -97.867      -68.777       -6.889       21.642       14.471       13.395      468.356      209.407      179.415        0.761        0.043      119.617        5.489        0.002      338.814       11.722      864.004
06/01/2013  03:48:00      -99.654      -64.915      -13.573       31.314       20.132       15.998      980.597      405.315      255.934        0.799        0.082      118.932        7.670        0.004      338.835       11.757      863.996
06/01/2013  03:49:00      -78.189      -47.012       -2.913       22.046       17.625       15.733      486.008      310.637      247.515        0.469        0.052       91.234        9.725        0.011      338.715       11.555      864.013
06/01/2013  03:50:00      -37.800      -29.285        9.318       32.362       15.914       15.559     1047.330      253.270      242.093        0.196        0.077       47.817       19.631        0.169      338.679       11.495      864.032
06/01/2013  03:51:00      -55.283      -56.191       -2.021       30.207       22.238       15.343      912.451      494.526      235.402        0.393        0.082       78.827       19.505        0.061      338.729       11.578      864.038
06/01/2013  03:52:00      -87.338      -66.011       -7.488       20.358       16.076       13.137      414.443      258.437      172.583        0.644        0.042      109.478       13.352        0.015      338.761       11.632      864.040
06/01/2013  03:53:00      -99.182      -48.309      -10.892       23.099       21.680       14.407      533.558      470.044      207.560        0.675        0.061      110.321       13.287        0.015      338.771       11.650      864.034
06/01/2013  03:54:00      -99.562      -44.942       -5.946       29.842       17.778       15.972      890.556      316.047      255.110        0.671        0.073      109.236       10.928        0.010      338.756       11.622      864.018
06/01/2013  03:55:00     -115.139      -63.378       -7.949       20.212       18.330       13.423      408.523      336.007      180.167        0.913        0.046      131.429        9.948        0.006      338.755       11.623      864.002
06/01/2013  03:56:00     -116.896      -61.395       -9.948       17.726       19.511       14.476      314.223      380.690      209.547        0.922        0.045      132.038       10.126        0.006      338.671       11.481      863.995
06/01/2013  03:57:00      -71.328      -49.944       -5.559       25.798       18.508       17.320      665.531      342.543      299.992        0.446        0.065       87.075       15.137        0.030      338.687       11.508      864.006
06/01/2013  03:58:00      -93.184      -30.527      -12.686       18.785       17.411       11.601      352.885      303.145      134.588        0.528        0.040       98.057        9.629        0.010      338.716       11.557      864.025
06/01/2013  03:59:00      -90.767      -36.175       -9.636       14.540       16.315       12.276      211.406      266.194      150.708        0.513        0.031       97.710        7.429        0.006      338.706       11.539      864.037
06/01/2013  04:00:00      -96.088      -30.334      -10.399       15.189       13.658       10.442      230.714      186.551      109.042        0.539        0.026      100.762        7.255        0.005      338.673       11.484      864.054
06/01/2013  04:01:00     -110.150      -38.118      -10.523       23.633       16.103       15.635      558.502      259.310      244.441        0.738        0.053      116.559       13.926        0.014      338.698       11.526      864.076
06/01/2013  04:02:00     -114.266      -51.106      -12.368       10.512       11.766       10.399      110.511      138.448      108.144        0.809        0.018      125.174        5.229        0.002      338.699       11.528      864.092
06/01/2013  04:03:00     -114.694      -28.939      -10.896       13.650       13.012       10.254      186.325      169.311      105.151        0.729        0.023      118.288        5.112        0.002      338.651       11.447      864.090
06/01/2013  04:04:00     -108.303      -20.061       -6.497       25.873       16.227       15.035      669.416      263.322      226.045        0.667        0.058      110.145       13.606        0.015      338.623       11.401      864.105
06/01/2013  04:05:00     -106.508      -34.650       -6.775       11.597       13.801        8.825      134.486      190.461       77.885        0.650        0.020      112.003        3.136        0.001      338.629       11.410      864.127
06/01/2013  04:06:00      -98.320      -30.335       -8.232       12.887       17.226        9.642      166.068      296.737       92.963        0.561        0.028      102.893        6.866        0.004      338.620       11.395      864.147
06/01/2013  04:07:00     -112.741      -39.623      -15.958        9.495       13.874        8.920       90.160      192.475       79.566        0.745        0.018      119.501        4.314        0.001      338.620       11.396      864.147
06/01/2013  04:08:00      -98.734      -24.106      -13.753       23.875       12.064       12.494      570.034      145.536      156.090        0.570        0.044      101.634       11.993        0.014      338.615       11.388      864.144
06/01/2013  04:09:00     -112.626      -24.631      -15.378       25.666       17.700       17.482      658.767      313.284      305.621        0.740        0.064      115.288       15.821        0.019      338.613       11.383      864.149
06/01/2013  04:10:00     -116.587      -28.428       -7.051       26.034       16.454       14.773      677.753      270.736      218.247        0.781        0.058      120.002       11.849        0.010      338.556       11.287      864.157
06/01/2013  04:11:00     -117.280      -37.550       -5.612       25.371       15.463       13.107      643.684      239.099      171.794        0.813        0.053      123.145       13.844        0.013      338.493       11.181      864.164
06/01/2013  04:12:00     -110.303      -61.137       -9.244       12.735       11.978        8.624      162.184      143.475       74.379        0.818        0.019      126.113        5.602        0.002      338.454       11.116      864.159
06/01/2013  04:13:00     -118.007      -33.020       -9.879       13.293       21.433       13.739      176.707      459.366      188.771        0.797        0.041      122.540        8.778        0.005      338.410       11.042      864.151
06/01/2013  04:14:00      -88.050      -53.031      -13.448       10.048       14.920        9.585      100.962      222.610       91.864        0.558        0.021      102.786        5.639        0.003      338.536       11.253      864.154
06/01/2013  04:15:00      -84.817      -48.967      -12.694       11.545       15.421        8.304      133.291      237.799       68.959        0.510        0.022       97.938        5.479        0.003      338.604       11.367      864.147
06/01/2013  04:16:00      -91.549      -24.608      -12.748       13.927       13.446       10.495      193.956      180.806      110.153        0.482        0.024       94.798        7.657        0.007      338.598       11.359      864.140
06/01/2013  04:17:00      -95.475      -15.929       -7.600       14.995       13.855       10.969      224.849      191.966      120.314        0.498        0.027       96.795        7.766        0.006      338.631       11.414      864.142
06/01/2013  04:18:00     -100.049      -31.657      -19.242        7.211       17.867        7.388       51.994      319.228       54.580        0.590        0.021      104.938        6.838        0.004      338.594       11.353      864.158
06/01/2013  04:19:00     -113.736      -32.011      -17.569       11.243       12.048        7.979      126.408      145.156       63.661        0.730        0.017      118.154        3.586        0.001      338.649       11.445      864.164
06/01/2013  04:20:00     -121.141      -42.372      -15.574       10.359       11.230        9.249      107.315      126.120       85.553        0.852        0.016      128.337        2.441        0.000      338.632       11.415      864.167
06/01/2013  04:21:00     -128.762      -33.965      -16.327       11.734       12.664        9.710      137.694      160.366       94.277        0.920        0.020      133.166        5.389        0.002      338.561       11.298      864.164
06/01/2013  04:22:00     -117.250      -32.032      -10.977       16.112       18.669       12.924      259.609      348.518      167.021        0.783        0.039      121.547        9.575        0.006      338.474       11.150      864.164
06/01/2013  04:23:00     -121.514      -38.741      -15.663       16.128       15.275        9.718      260.101      233.316       94.442        0.855        0.029      127.540        6.423        0.003      338.368       10.972      864.180
06/01/2013  04:24:00     -111.985      -40.048      -10.345       12.442       12.725        8.663      154.808      161.936       75.047        0.732        0.020      118.930        4.604        0.001      338.347       10.939      864.172
06/01/2013  04:25:00     -100.726      -41.642      -12.783        7.896       10.210        9.109       62.349      104.241       82.975        0.615        0.012      108.994        5.726        0.003      338.413       11.049      864.156
06/01/2013  04:26:00      -94.340      -43.811      -13.356        9.669       11.569        9.790       93.494      133.851       95.836        0.566        0.016      104.017        5.613        0.003      338.554       11.285      864.142
06/01/2013  04:27:00      -91.389      -32.848      -10.814       11.190       13.129       11.910      125.219      172.370      141.857        0.499        0.022       97.113        6.562        0.005      338.558       11.292      864.142
06/01/2013  04:28:00      -81.415      -45.340       -7.217       13.508       11.233       10.981      182.467      126.187      120.578        0.458        0.021       93.188        8.925        0.009      338.571       11.313      864.142
06/01/2013  04:29:00      -90.278      -47.779      -10.708       10.694        8.276        8.739      114.368       68.489       76.374        0.540        0.013      102.142        2.214        0.000      338.538       11.260      864.145
06/01/2013  04:30:00      -98.994      -52.407      -12.068       15.593       16.327       12.015      243.151      266.558      144.359        0.667        0.033      112.010        6.371        0.003      338.485       11.168      864.143
06/01/2013  04:31:00     -113.601      -63.514       -6.419       18.366       16.990       13.287      337.301      288.649      176.541        0.889        0.040      130.151        7.313        0.003      338.409       11.041      864.145
06/01/2013  04:32:00      -87.880      -57.180       -4.797       31.135       30.664       18.342      969.404      940.290      336.415        0.663        0.112      104.845       13.498        0.017      338.353       10.946      864.154
06/01/2013  04:33:00      -72.094      -46.557        3.427       40.597       27.935       18.031     1648.077      780.352      325.101        0.506        0.138       85.821       19.117        0.050      338.415       11.049      864.163
06/01/2013  04:34:00      -66.373      -39.812        6.216       26.828       17.221       16.691      719.718      296.566      278.581        0.366        0.065       77.398       12.186        0.025      338.458       11.123      864.168
06/01/2013  04:35:00      -46.008      -47.640        1.831       44.976       20.214       21.490     2022.860      408.615      461.823        0.364        0.145       66.229       15.975        0.058      338.470       11.143      864.173
06/01/2013  04:36:00      -71.236      -60.794        2.127       35.933       32.353       17.445     1291.188     1046.739      304.326        0.571        0.132       93.650       14.741        0.025      338.428       11.073      864.185
06/01/2013  04:37:00      -78.608      -44.886       -2.636       26.335       21.037       17.337      693.534      442.563      300.586        0.482        0.072       90.521       14.189        0.025      338.493       11.182      864.180
06/01/2013  04:38:00      -84.669      -42.327        4.156       30.074       38.729       22.844      904.463     1499.941      521.839        0.595        0.146       94.659       13.825        0.021      338.424       11.066      864.176
06/01/2013  04:39:00      -67.372      -58.842        0.930       35.807       32.744       18.795     1282.158     1072.174      353.268        0.535        0.135       89.450       18.984        0.045      338.363       10.963      864.179
06/01/2013  04:40:00      -85.636      -90.565       -1.870       37.422       37.321       24.058     1400.432     1392.867      578.791        0.946        0.169      124.642       17.063        0.019      338.299       10.856      864.177
06/01/2013  04:41:00     -108.710      -83.366       -8.428       42.589       43.551       22.297     1813.857     1896.685      497.158        1.152        0.210      136.996       18.448        0.018      338.424       11.066      864.166
06/01/2013  04:42:00     -124.451      -71.827      -12.548       41.394       34.144       25.788     1713.469     1165.828      664.995        1.217        0.177      143.692       16.467        0.013      338.384       10.999      864.159
06/01/2013  04:43:00     -111.347      -62.954       -7.905       45.779       35.149       22.933     2095.727     1235.457      525.916        1.014        0.193      127.911       14.291        0.012      338.319       10.891      864.145
06/01/2013  04:44:00     -110.983      -77.160        0.732       52.343       43.463       28.505     2739.815     1889.045      812.522        1.186        0.272      135.170       26.341        0.038      338.312       10.877      864.122
06/01/2013  04:45:00     -119.642      -79.995        0.174       54.097       40.575       28.677     2926.446     1646.366      822.373        1.305        0.270      143.922       26.487        0.034      338.278       10.822      864.110
06/01/2013  04:46:00     -136.765      -82.493       -7.077       36.973       43.617       22.120     1366.975     1902.458      489.308        1.466        0.188      159.718       14.781        0.009      338.327       10.904      864.118
06/01/2013  04:47:00     -142.916      -85.283       -4.076       39.430       36.845       27.689     1554.695     1357.571      766.706        1.570        0.184      166.428       24.934        0.022      338.319       10.891      864.119
06/01/2013  04:48:00     -134.762      -67.404        3.554       46.533       41.973       30.516     2165.362     1761.760      931.250        1.379        0.243      150.678       28.523        0.036      338.282       10.828      864.119
06/01/2013  04:49:00     -140.870      -86.849       -1.237       53.881       48.017       31.960     2903.183     2305.645     1021.449        1.681        0.312      165.490       31.070        0.035      338.300       10.858      864.118
06/01/2013  04:50:00     -153.055      -96.155       -2.706       59.850       61.076       32.505     3582.081     3730.304     1056.561        2.052        0.418      180.753       29.257        0.026      338.297       10.849      864.128
06/01/2013  04:51:00     -131.058      -87.193       -0.737       57.598       37.162       29.072     3317.510     1381.037      845.203        1.516        0.277      157.413       24.285        0.024      338.269       10.805      864.128
06/01/2013  04:52:00     -146.872     -108.565       -0.723       52.742       42.715       30.325     2781.769     1824.583      919.630        1.944        0.276      182.641       27.506        0.023      338.317       10.885      864.127
06/01/2013  04:53:00     -149.266     -117.081        1.912       56.720       50.430       34.721     3217.204     2543.138     1205.524        2.148        0.348      189.706       33.972        0.032      338.289       10.838      864.131
06/01/2013  04:54:00     -106.809      -92.500        9.854       57.470       45.291       31.204     3302.792     2051.269      973.714        1.319        0.316      141.295       28.629        0.041      338.245       10.766      864.137
06/01/2013  04:55:00     -121.280      -84.999       -5.039       31.915       39.269       23.706     1018.540     1542.048      561.989        1.254        0.156      148.100       20.628        0.019      338.233       10.746      864.138
06/01/2013  04:56:00     -125.922      -94.029       -7.146       32.071       41.235       27.603     1028.527     1700.315      761.952        1.412        0.175      157.155       21.170        0.018      338.248       10.769      864.126
06/01/2013  04:57:00     -108.881      -64.535        7.463       52.377       32.633       27.032     2743.321     1064.910      730.730        1.031        0.227      126.570       21.167        0.028      338.236       10.750      864.117
06/01/2013  04:58:00     -114.458      -69.857        2.578       43.979       36.971       31.581     1934.167     1366.857      997.384        1.114        0.215      134.091       30.647        0.052      338.229       10.739      864.121
06/01/2013  04:59:00     -152.844     -102.702      -12.343       33.656       36.078       24.526     1132.743     1301.627      601.533        1.855        0.152      184.144       20.345        0.012      338.288       10.838      864.120
06/01/2013  05:00:00     -120.733      -93.945        3.827       51.920       42.909       27.861     2695.640     1841.213      776.234        1.436        0.266      152.978       30.038        0.039      338.305       10.867      864.115
06/01/2013  05:01:00     -101.477      -80.821       -1.427       46.930       35.988       25.051     2202.403     1295.140      627.532        1.048        0.206      129.729       25.915        0.040      338.335       10.918      864.123
06/01/2013  05:02:00      -77.530      -61.822       -0.679       42.671       33.122       24.705     1820.774     1097.064      610.332        0.668        0.176       99.161       21.291        0.046      338.349       10.941      864.132
06/01/2013  05:03:00      -90.339      -82.862        2.009       54.870       42.437       26.415     3010.756     1800.866      697.753        1.027        0.275      122.586       29.462        0.058      338.368       10.972      864.126
06/01/2013  05:04:00     -101.773      -61.867        4.107       74.142       32.819       26.375     5496.974     1077.060      695.626        1.073        0.363      119.102       31.867        0.072      338.394       11.015      864.114
06/01/2013  05:05:00     -112.837      -87.580       -3.555       49.321       37.418       23.352     2432.590     1400.102      545.324        1.240        0.219      142.837       21.369        0.022      338.391       11.010      864.117
06/01/2013  05:06:00     -123.545      -82.401        0.612       49.929       39.973       30.662     2492.941     1597.801      940.180        1.354        0.252      148.504       28.153        0.036      338.360       10.958      864.123
06/01/2013  05:07:00     -133.614     -132.447       -4.036       43.751       52.758       26.578     1914.109     2783.454      706.412        2.041        0.270      188.135       25.028        0.018      338.348       10.936      864.118
06/01/2013  05:08:00     -148.240     -102.696       -5.213       47.511       51.630       28.108     2257.296     2665.658      790.057        1.913        0.286      180.337       26.114        0.021      338.298       10.854      864.108
06/01/2013  05:09:00     -128.341      -86.488        0.004       72.770       47.236       37.310     5295.496     2231.194     1392.062        1.643        0.446      154.763       35.365        0.052      338.241       10.758      864.103
06/01/2013  05:10:00     -100.223      -66.976        0.073       57.043       37.982       29.177     3253.882     1442.598      851.325        1.004        0.277      120.542       34.284        0.081      338.165       10.630      864.112
06/01/2013  05:11:00      -94.634      -74.064       -5.499       31.617       30.849       21.652      999.630      951.633      468.818        0.845        0.121      120.171       20.257        0.028      338.085       10.497      864.118
06/01/2013  05:12:00     -100.306      -93.921       -1.033       27.850       31.684       18.483      775.606     1003.863      341.614        1.050        0.106      137.414       11.388        0.007      338.098       10.519      864.116
06/01/2013  05:13:00      -86.430      -76.017       -2.935       38.768       36.113       21.652     1502.936     1304.130      468.798        0.827        0.164      115.104       19.958        0.030      338.070       10.473      864.111
06/01/2013  05:14:00     -104.386      -64.172       -3.180       42.269       32.462       25.051     1786.653     1053.814      627.535        0.925        0.173      122.533       27.309        0.050      338.104       10.529      864.111
06/01/2013  05:15:00     -114.292      -69.589       -9.433       30.054       21.367       20.748      903.263      456.534      430.479        0.989        0.090      133.811        9.749        0.005      338.144       10.596      864.099
06/01/2013  05:16:00      -99.644      -56.861        2.417       42.482       29.627       15.324     1804.741      877.751      234.837        0.804        0.146      114.726       15.689        0.019      338.089       10.504      864.088
06/01/2013  05:17:00      -70.577      -44.673        6.523       36.149       25.963       18.859     1306.746      674.076      355.650        0.468        0.117       83.527       18.242        0.048      338.111       10.541      864.088
06/01/2013  05:18:00     -116.985      -63.629       -3.189       34.002       31.544       18.770     1156.111      994.996      352.299        1.012        0.125      133.169       11.781        0.008      338.083       10.494      864.077
06/01/2013  05:19:00     -134.006      -66.689       -6.725       42.172       20.591       15.464     1778.446      423.983      239.140        1.245        0.122      149.683       12.551        0.007      338.099       10.520      864.063
06/01/2013  05:20:00      -73.736      -48.954        3.599       29.292       26.198       20.298      858.036      686.312      412.013        0.490        0.098       88.507       12.065        0.019      338.097       10.516      864.060
06/01/2013  05:21:00      -40.867      -19.568        4.994       29.442       19.725       16.070      866.849      389.059      258.253        0.180        0.076       45.310       11.522        0.065      338.021       10.390      864.083
06/01/2013  05:22:00      -57.947      -37.978        5.686       27.789       22.988       16.419      772.230      528.455      269.599        0.320        0.079       69.283       14.042        0.041      338.127       10.569      864.099
06/01/2013  05:23:00      -52.174      -54.152       -4.654       26.760       17.181       12.473      716.104      295.190      155.587        0.342        0.058       75.197       11.680        0.024      338.214       10.713      864.106
06/01/2013  05:24:00      -35.575      -27.426        5.663       27.756       20.984       14.221      770.396      440.311      202.243        0.173        0.071       44.920       14.144        0.099      338.235       10.750      864.105
06/01/2013  05:25:00      -33.079      -15.711        2.801       32.575       22.153       15.646     1061.158      490.763      244.810        0.157        0.090       36.620       13.152        0.129      338.214       10.712      864.099
06/01/2013  05:26:00      -80.704      -39.708       -7.606       18.090       15.732       11.310      327.231      247.511      127.908        0.443        0.035       89.943        2.808        0.001      338.255       10.783      864.098
06/01/2013  05:27:00      -66.646      -38.821       -6.724       12.822        9.416       10.705      164.416       88.668      114.605        0.318        0.018       77.128        8.173        0.011      338.189       10.671      864.118
06/01/2013  05:28:00      -30.944      -22.023       -3.565       19.162       12.399       10.169      367.199      153.732      103.400        0.104        0.031       37.981        6.420        0.029      338.163       10.628      864.145
06/01/2013  05:29:00      -21.665      -14.741        9.559       22.484       11.498       13.563      505.550      132.194      183.947        0.080        0.041       26.204       13.650        0.271      338.164       10.630      864.158
06/01/2013  05:30:00      -90.866      -26.389       -5.252       15.619       12.313        7.143      243.953      151.600       51.019        0.471        0.022       94.620        5.713        0.004      338.161       10.624      864.158
06/01/2013  05:31:00     -125.438      -30.392      -11.007       14.274       10.220        8.846      203.755      104.444       78.246        0.858        0.019      129.068        4.864        0.001      338.066       10.464      864.161
06/01/2013  05:32:00     -139.067      -43.426      -14.727       14.374       12.866        9.714      206.610      165.546       94.358        1.095        0.023      145.690        3.267        0.001      338.054       10.447      864.165
06/01/2013  05:33:00     -131.823      -52.814       -3.682       26.380       20.792       16.604      695.886      432.304      275.707        1.079        0.070      142.010       15.659        0.012      337.965       10.297      864.169
06/01/2013  05:34:00      -90.904      -47.322        1.883       36.129       28.938       20.271     1305.312      837.395      410.924        0.653        0.128      102.484       17.894        0.030      337.957       10.283      864.166
06/01/2013  05:35:00      -70.211      -46.002        6.325       48.565       36.026       19.406     2358.549     1297.895      376.606        0.556        0.202       83.939       19.971        0.057      338.001       10.355      864.162
06/01/2013  05:36:00      -78.253      -65.564        0.343       43.142       31.715       20.949     1861.224     1005.813      438.842        0.686        0.165      102.090       18.986        0.035      338.061       10.455      864.165
06/01/2013  05:37:00      -76.614      -66.732        1.026       27.773       27.282       19.217      771.320      744.317      369.305        0.610        0.094      101.601       13.728        0.018      338.032       10.407      864.179
06/01/2013  05:38:00      -56.200      -52.942        5.247       33.896       25.971       19.375     1148.932      674.482      375.379        0.409        0.110       77.209       19.925        0.067      338.007       10.366      864.179
06/01/2013  05:39:00      -41.385      -41.707        7.573       28.272       30.977       18.626      799.324      959.570      346.930        0.281        0.105       58.756       20.048        0.116      338.016       10.381      864.183
06/01/2013  05:40:00      -70.058      -63.454       -4.381       26.318       25.814       15.807      692.643      666.338      249.873        0.528        0.080       94.523        9.033        0.009      338.073       10.478      864.193
06/01/2013  05:41:00      -97.553      -77.892      -12.951       33.146       30.381       22.456     1098.649      922.979      504.286        0.914        0.126      124.835       19.080        0.023      338.029       10.403      864.206
06/01/2013  05:42:00     -106.139      -52.671       -7.417       28.017       32.800       21.964      784.976     1075.842      482.403        0.822        0.117      118.489       12.828        0.012      338.034       10.410      864.211
06/01/2013  05:43:00     -138.800     -106.327      -10.932       47.747       54.614       28.504     2279.812     2982.710      812.456        1.838        0.304      174.845       28.547        0.027      337.972       10.307      864.208
06/01/2013  05:44:00     -152.392     -102.085      -13.629       60.104       46.904       35.118     3612.527     2199.960     1233.289        2.044        0.352      183.425       31.113        0.029      337.970       10.303      864.208
06/01/2013  05:45:00     -116.700      -40.700       -0.978       70.464       45.475       41.306     4965.188     2067.948     1706.197        1.201        0.437      123.594       43.429        0.123      337.906       10.197      864.204
06/01/2013  05:46:00     -138.034      -92.886       -4.069       64.939       48.776       40.098     4217.128     2379.128     1607.821        1.795        0.410      166.377       26.030        0.024      337.867       10.131      864.208
06/01/2013  05:47:00     -173.728     -102.663      -18.272       56.524       41.246       34.147     3194.999     1701.196     1166.046        2.356        0.303      201.794       19.886        0.010      337.835       10.075      864.219
06/01/2013  05:48:00     -161.453     -120.522       -8.685       34.809       44.752       29.841     1211.661     2002.730      890.458        2.239        0.205      201.476       24.737        0.015      337.837       10.078      864.232
06/01/2013  05:49:00     -123.319      -75.389       -3.859       59.896       44.494       32.392     3587.482     1979.716     1049.223        1.376        0.331      144.537       32.509        0.051      337.854       10.109      864.236
06/01/2013  05:50:00     -118.067     -111.753        0.445       53.396       43.810       29.945     2851.123     1919.326      896.724        1.605        0.283      162.569       29.745        0.033      337.861       10.120      864.236
06/01/2013  05:51:00     -104.812      -90.648        4.676       65.650       47.599       34.786     4309.948     2265.642     1210.049        1.350        0.389      138.573       34.416        0.062      337.908       10.199      864.231
06/01/2013  05:52:00     -141.463     -130.283       -3.635       47.670       39.536       31.998     2272.385     1563.088     1023.883        2.093        0.243      192.316       30.722        0.026      337.906       10.195      864.234
06/01/2013  05:53:00     -142.982     -122.806       -0.162       47.132       44.538       31.991     2221.410     1983.636     1023.449        2.038        0.261      188.481       30.606        0.026      337.908       10.198      864.229
06/01/2013  05:54:00     -147.057     -112.669        4.001       55.748       51.839       36.131     3107.821     2687.243     1305.456        2.072        0.355      185.257       35.661        0.037      337.914       10.208      864.225
06/01/2013  05:55:00     -174.985     -113.358        3.353       53.979       49.982       37.090     2913.754     2498.241     1375.673        2.513        0.339      208.494       33.364        0.026      337.873       10.138      864.221
06/01/2013  05:56:00     -154.999     -129.890        0.673       72.922       59.679       39.258     5317.567     3561.591     1541.193        2.566        0.521      202.228       25.502        0.016      337.827       10.061      864.204
06/01/2013  05:57:00     -187.432     -122.916       -3.476       62.868       44.799       44.690     3952.348     2006.933     1997.200        2.910        0.398      224.141       34.847        0.024      337.760        9.949      864.191
06/01/2013  05:58:00     -160.396     -104.513       -2.095       62.954       51.472       38.135     3963.246     2649.385     1454.302        2.236        0.403      191.441       35.128        0.034      337.754        9.940      864.183
06/01/2013  05:59:00     -160.265      -99.196       -7.494       69.484       57.388       41.095     4828.022     3293.339     1688.798        2.269        0.491      188.480       46.170        0.060      337.732        9.903      864.181
06/01/2013  06:00:00     -129.903      -37.994        3.675       73.491       55.640       36.521     5400.895     3095.787     1333.796        1.408        0.492      135.346       33.731        0.062      337.659        9.783      864.186
06/01/2013  06:01:00     -147.373      -77.450      -12.634       46.747       43.998       34.500     2185.238     1935.790     1190.217        1.659        0.266      166.485       23.222        0.019      337.715        9.876      864.182
06/01/2013  06:02:00     -131.479      -89.614       -9.422       77.646       51.078       33.132     6028.925     2608.930     1097.720        1.757        0.487      159.114       30.414        0.037      337.762        9.953      864.181
06/01/2013  06:03:00     -197.140     -141.095      -14.668       47.826       49.416       34.664     2287.340     2441.985     1201.612        3.246        0.297      242.429       26.017        0.012      337.768        9.959      864.166
06/01/2013  06:04:00     -145.214      -86.740       10.845       81.575       59.192       38.756     6654.544     3503.707     1502.063        2.019        0.583      169.148       45.282        0.072      337.755        9.942      864.150
06/01/2013  06:05:00     -132.987     -108.162       -3.655       53.151       66.515       28.935     2825.058     4424.272      837.235        1.874        0.404      171.419       27.757        0.026      337.746        9.927      864.151
06/01/2013  06:06:00     -149.465     -103.809       -2.991       54.522       47.205       34.386     2972.680     2228.357     1182.400        1.975        0.319      181.978       28.256        0.024      337.789       10.000      864.154
06/01/2013  06:07:00     -151.991     -121.318      -14.174       52.145       46.795       31.787     2719.119     2189.758     1010.392        2.197        0.296      194.472       26.291        0.018      337.810       10.036      864.149
06/01/2013  06:08:00     -147.558     -103.387       -8.478       30.342       47.349       23.710      920.620     2241.917      562.161        1.813        0.186      180.173       14.360        0.006      337.864       10.125      864.145
06/01/2013  06:09:00     -138.942      -72.344       -2.741       38.012       40.851       21.578     1444.911     1668.845      465.603        1.406        0.179      156.647       13.716        0.008      337.891       10.171      864.141
06/01/2013  06:10:00      -62.940      -26.085        2.928       39.645       28.535       18.958     1571.708      814.233      359.398        0.370        0.137       68.132       21.139        0.096      337.999       10.353      864.146
06/01/2013  06:11:00     -118.625      -46.833        2.815       64.095       36.461       26.222     4108.123     1329.425      687.602        1.120        0.306      127.535       30.834        0.058      337.978       10.318      864.141
06/01/2013  06:12:00      -89.728      -83.693       -1.783       55.400       48.651       26.191     3069.119     2366.914      685.973        1.059        0.306      122.702       28.858        0.055      337.983       10.326      864.132
06/01/2013  06:13:00     -112.328     -109.889       -6.077       50.971       55.642       26.738     2598.052     3096.051      714.906        1.557        0.320      157.140       28.786        0.034      337.948       10.266      864.120
06/01/2013  06:14:00      -94.044      -71.627        5.289       43.769       36.697       22.394     1915.684     1346.648      501.484        0.888        0.188      118.215       23.372        0.039      337.965       10.297      864.122
06/01/2013  06:15:00      -65.418      -81.983       -1.854       50.550       30.479       23.359     2555.281      928.973      545.622        0.752        0.201      104.885       19.866        0.036      338.034       10.413      864.122
06/01/2013  06:16:00      -96.334      -63.052       -3.601       37.898       30.081       26.091     1436.269      904.849      680.758        0.814        0.151      115.134       23.909        0.043      337.992       10.343      864.120
06/01/2013  06:17:00      -71.072      -65.656       -0.792       35.085       33.158       22.318     1230.977     1099.421      498.110        0.610        0.141       96.757       21.495        0.049      338.030       10.404      864.106
06/01/2013  06:18:00      -34.585      -48.734        5.965       43.793       24.289       19.320     1917.849      589.960      373.257        0.324        0.144       59.759       22.519        0.142      338.092       10.508      864.106
06/01/2013  06:19:00      -54.508      -44.312       -3.640       22.438       20.830       16.806      503.482      433.879      282.451        0.308        0.061       70.247        6.765        0.009      338.098       10.519      864.098
06/01/2013  06:20:00      -67.841      -57.321       -0.005       27.080       24.305       19.241      733.324      590.738      370.217        0.479        0.085       88.815       17.211        0.038      338.096       10.515      864.084
06/01/2013  06:21:00      -77.810      -45.918       -1.490       30.327       21.629       15.248      919.751      467.813      232.504        0.489        0.081       90.348       14.683        0.026      338.073       10.477      864.081
06/01/2013  06:22:00      -91.897      -41.079       -3.332       35.941       24.638       18.353     1291.756      607.018      336.833        0.619        0.112      100.661       19.680        0.038      338.116       10.548      864.088
06/01/2013  06:23:00      -54.853      -23.422        6.007       44.167       29.354       17.689     1950.765      861.665      312.885        0.336        0.156       59.644       23.099        0.150      338.236       10.751      864.094
06/01/2013  06:24:00      -26.157      -19.037        8.720       19.414       18.846       14.399      376.903      355.185      207.342        0.103        0.047       32.351       11.895        0.135      338.303       10.861      864.106
06/01/2013  06:25:00      -87.596      -57.176       -3.041       27.532       27.355       14.683      758.006      748.284      215.577        0.634        0.086      104.605       11.572        0.012      338.212       10.709      864.108
06/01/2013  06:26:00     -118.133      -62.872       -8.030       27.753       18.809       15.620      770.204      353.761      243.978        0.967        0.068      133.822       10.976        0.007      338.210       10.706      864.093
06/01/2013  06:27:00      -57.770      -35.190        6.240       54.201       18.842       20.843     2937.775      355.033      434.431        0.417        0.186       67.644       25.824        0.146      338.241       10.758      864.093
06/01/2013  06:28:00      -56.446      -75.564       -4.181       40.170       30.136       25.746     1613.649      908.172      662.840        0.605        0.159       94.319       23.708        0.063      338.260       10.790      864.095
06/01/2013  06:29:00      -23.874      -36.852        1.942       27.077       30.423       18.638      733.180      925.579      347.362        0.197        0.100       43.909       19.264        0.192      338.393       11.014      864.114
06/01/2013  06:30:00        1.985      -14.402       16.282       10.878       24.181       10.279      118.341      584.738      105.652        0.064        0.040       14.538        4.896        0.113      338.783       11.669      864.124
06/01/2013  06:31:00      -31.666      -60.752        1.229       36.495       22.732       18.027     1331.868      516.740      324.957        0.343        0.109       68.510       21.450        0.098      338.295       10.849      864.126
06/01/2013  06:32:00      -63.654     -123.398       -4.827       29.704       38.076       16.520      882.308     1449.764      272.921        1.095        0.130      138.849       14.160        0.010      338.244       10.763      864.120
06/01/2013  06:33:00      -79.590      -60.200        3.887       44.092       32.632       24.598     1944.135     1064.859      605.057        0.679        0.181       99.793       21.371        0.046      338.250       10.775      864.087
06/01/2013  06:34:00     -114.035      -91.439        0.733       64.284       48.121       28.844     4132.497     2315.644      831.983        1.432        0.364      146.168       33.833        0.054      338.224       10.729      864.072
06/01/2013  06:35:00     -100.029      -65.765        7.092       59.501       44.460       27.680     3540.341     1976.688      766.191        1.033        0.314      119.712       28.650        0.057      338.256       10.785      864.082
06/01/2013  06:36:00      -58.025      -36.944        3.518       42.846       31.139       23.396     1835.805      969.625      547.367        0.405        0.168       68.788       10.570        0.024      338.481       11.161      864.099
06/01/2013  06:37:00      -87.489      -44.436       -4.416       33.163       27.707       24.152     1099.771      767.681      583.312        0.605        0.123       98.127       16.835        0.029      338.306       10.868      864.110
06/01/2013  06:38:00      -75.008      -55.841       -5.452       33.713       30.366       16.612     1136.587      922.119      275.962        0.555        0.117       93.512       14.691        0.025      338.317       10.888      864.101
06/01/2013  06:39:00      -96.953      -63.997       -2.399       39.374       44.900       21.320     1550.282     2016.013      454.553        0.876        0.201      116.170       12.930        0.012      338.351       10.943      864.103
06/01/2013  06:40:00      -94.000      -44.273        4.155       59.175       54.157       20.716     3501.687     2933.001      429.170        0.884        0.343      103.904       27.790        0.072      338.361       10.960      864.095
06/01/2013  06:41:00      -74.114      -66.689        6.399       46.750       44.799       30.261     2185.539     2006.912      915.701        0.754        0.255       99.701       32.305        0.105      338.449       11.108      864.108
06/01/2013  06:42:00      -76.906      -51.056        0.752       50.118       25.468       21.909     2511.826      648.627      480.002        0.608        0.182       92.311       25.510        0.076      338.480       11.160      864.115
06/01/2013  06:43:00      -95.801      -63.836        5.713       49.378       44.464       31.550     2438.159     1977.033      995.379        0.935        0.271      115.121       29.798        0.067      338.450       11.109      864.121
06/01/2013  06:44:00     -107.263      -61.373        0.173       63.054       38.423       30.401     3975.789     1476.319      924.192        1.082        0.319      123.580       36.488        0.087      338.546       11.271      864.122
06/01/2013  06:45:00      -68.943      -78.575       -1.062       48.661       33.779       22.977     2367.929     1141.001      527.950        0.748        0.202      104.533       21.140        0.041      338.492       11.180      864.112
06/01/2013  06:46:00      -64.313      -39.233       -7.134       34.016       31.532       16.727     1157.092      994.247      279.803        0.408        0.122       75.335       13.114        0.030      338.552       11.282      864.081
06/01/2013  06:47:00     -100.712      -22.196       -5.115       35.033       16.000       18.888     1227.291      256.004      356.751        0.625        0.092      103.129       19.991        0.038      338.552       11.282      864.043
06/01/2013  06:48:00      -55.661      -21.551        5.471       26.369       25.126       13.579      695.299      631.325      184.387        0.255        0.076       59.687       11.038        0.034      338.638       11.424      864.011
06/01/2013  06:49:00      -73.125      -39.303        2.019       25.657       19.611       16.173      658.304      384.592      261.578        0.410        0.065       83.018       12.580        0.023      338.657       11.457      863.999
06/01/2013  06:50:00      -58.996      -55.656        0.963       29.158       19.989       17.487      850.168      399.563      305.782        0.407        0.078       81.105       11.537        0.020      338.679       11.494      863.997
06/01/2013  06:51:00      -36.939      -38.235        2.535       47.182       28.483       20.074     2226.111      811.293      402.980        0.314        0.172       53.163       27.459        0.267      338.834       11.754      863.997
06/01/2013  06:52:00      -76.033      -58.679       -3.269       33.967       27.371       20.537     1153.745      749.181      421.755        0.578        0.116       96.043       17.269        0.032      338.774       11.652      864.011
06/01/2013  06:53:00      -66.651      -52.959       -3.686       31.941       26.926       18.458     1020.254      725.020      340.712        0.467        0.104       85.130       14.070        0.027      338.840       11.765      864.015
06/01/2013  06:54:00      -69.901      -23.619       -3.366       15.375       13.026        8.338      236.403      169.672       69.525        0.297        0.024       73.783        5.735        0.006      338.819       11.730      864.028
06/01/2013  06:55:00      -22.383      -17.198        0.316       19.844       14.600       12.075      393.784      213.147      145.817        0.077        0.038       28.227       10.547        0.140      338.956       11.959      864.039
06/01/2013  06:56:00      -40.530        6.451        2.008       20.233       14.734       10.825      409.373      217.083      117.171        0.122        0.037       41.040        8.758        0.046      338.940       11.931      864.057
06/01/2013  06:57:00      -72.944       33.178       -1.689       19.735       15.300        9.898      389.488      234.093       97.971        0.357        0.036       80.135        2.684        0.001      338.800       11.697      864.071
06/01/2013  06:58:00      -63.386       20.937        4.150       36.101       16.223       20.064     1303.308      263.173      402.560        0.322        0.098       66.754       20.543        0.095      339.157       12.300      864.078
06/01/2013  06:59:00      -58.879      -11.564        5.251       36.752       27.213       20.082     1350.713      740.558      403.287        0.306        0.125       60.004       20.922        0.122      339.161       12.305      864.089
06/01/2013  07:00:00      -67.864      -19.532       -4.154       19.159       23.526       12.858      367.071      553.461      165.316        0.304        0.054       70.619        9.783        0.019      338.955       11.958      864.092
06/01/2013  07:01:00      -20.426      -14.154       13.583       19.707       15.288       14.649      388.363      233.716      214.591        0.082        0.042       24.850       14.047        0.320      339.698       13.210      864.093
06/01/2013  07:02:00      -23.052       -3.648        9.012       12.021        9.548       13.513      144.500       91.156      182.600        0.052        0.021       23.338        9.919        0.181      339.392       12.695      864.076
